sensor_id;sensor_type;location;lat;lon;timestamp;P1;durP1;ratioP1;P2;durP2;ratioP2
50010;SDS011;35899;50.352;19.390;2022-09-06T06:06:55;4.80;;;1.10;;
50010;SDS011;35899;50.352;19.390;2022-09-06T06:09:22;2.45;;;1.10;;
50010;SDS011;35899;50.352;19.390;2022-09-06T06:11:49;2.52;;;1.10;;
50010;SDS011;35899;50.352;19.390;2022-09-06T06:14:16;1.77;;;0.90;;
50010;SDS011;35899;50.352;19.390;2022-09-06T06:16:44;2.62;;;0.80;;
50010;SDS011;35899;50.352;19.390;2022-09-06T06:19:11;2.85;;;1.22;;
50010;SDS011;35899;50.352;19.390;2022-09-06T06:21:39;3.85;;;1.20;;
50010;SDS011;35899;50.352;19.390;2022-09-06T06:24:06;3.20;;;1.00;;
50010;SDS011;35899;50.352;19.390;2022-09-06T06:26:34;1.98;;;0.93;;
50010;SDS011;35899;50.352;19.390;2022-09-06T06:29:02;3.55;;;1.05;;
50010;SDS011;35899;50.352;19.390;2022-09-06T06:31:32;4.15;;;1.32;;
50010;SDS011;35899;50.352;19.390;2022-09-06T06:33:59;2.95;;;1.17;;
50010;SDS011;35899;50.352;19.390;2022-09-06T06:36:30;3.55;;;1.07;;
50010;SDS011;35899;50.352;19.390;2022-09-06T06:39:00;3.55;;;1.20;;
50010;SDS011;35899;50.352;19.390;2022-09-06T06:41:30;2.80;;;1.02;;
50010;SDS011;35899;50.352;19.390;2022-09-06T06:43:58;3.20;;;1.10;;
50010;SDS011;35899;50.352;19.390;2022-09-06T06:46:29;4.20;;;1.30;;
50010;SDS011;35899;50.352;19.390;2022-09-06T06:49:00;2.67;;;0.90;;
50010;SDS011;35899;50.352;19.390;2022-09-06T06:51:28;2.35;;;1.12;;
50010;SDS011;35899;50.352;19.390;2022-09-06T06:53:58;5.15;;;1.00;;
50010;SDS011;35899;50.352;19.390;2022-09-06T06:56:29;1.98;;;1.00;;
50010;SDS011;35899;50.352;19.390;2022-09-06T06:59:02;3.67;;;1.15;;
50010;SDS011;35899;50.352;19.390;2022-09-06T07:01:32;3.83;;;1.02;;
50010;SDS011;35899;50.352;19.390;2022-09-06T07:04:00;3.90;;;1.05;;
50010;SDS011;35899;50.352;19.390;2022-09-06T07:06:28;3.33;;;1.15;;
50010;SDS011;35899;50.352;19.390;2022-09-06T07:08:56;4.33;;;1.17;;
50010;SDS011;35899;50.352;19.390;2022-09-06T07:11:23;2.60;;;1.00;;
50010;SDS011;35899;50.352;19.390;2022-09-06T07:13:51;2.90;;;1.30;;
50010;SDS011;35899;50.352;19.390;2022-09-06T07:16:19;3.42;;;1.10;;
50010;SDS011;35899;50.352;19.390;2022-09-06T07:18:51;5.22;;;1.20;;
50010;SDS011;35899;50.352;19.390;2022-09-06T07:21:20;6.85;;;1.17;;
50010;SDS011;35899;50.352;19.390;2022-09-06T07:23:52;2.77;;;1.07;;
50010;SDS011;35899;50.352;19.390;2022-09-06T07:28:56;5.47;;;1.67;;
50010;SDS011;35899;50.352;19.390;2022-09-06T07:31:26;4.47;;;1.62;;
50010;SDS011;35899;50.352;19.390;2022-09-06T07:33:54;4.75;;;1.65;;
50010;SDS011;35899;50.352;19.390;2022-09-06T07:36:21;3.45;;;1.00;;
50010;SDS011;35899;50.352;19.390;2022-09-06T07:38:49;4.70;;;1.70;;
50010;SDS011;35899;50.352;19.390;2022-09-06T07:41:17;5.72;;;3.00;;
50010;SDS011;35899;50.352;19.390;2022-09-06T07:43:44;4.55;;;2.50;;
50010;SDS011;35899;50.352;19.390;2022-09-06T07:46:12;3.83;;;1.57;;
50010;SDS011;35899;50.352;19.390;2022-09-06T07:48:43;2.90;;;1.15;;
50010;SDS011;35899;50.352;19.390;2022-09-06T07:51:12;5.22;;;1.10;;
50010;SDS011;35899;50.352;19.390;2022-09-06T07:56:18;4.70;;;1.00;;
50010;SDS011;35899;50.352;19.390;2022-09-06T07:58:50;3.40;;;1.00;;
50010;SDS011;35899;50.352;19.390;2022-09-06T08:01:24;2.55;;;0.90;;
50010;SDS011;35899;50.352;19.390;2022-09-06T08:06:27;4.92;;;0.90;;
50010;SDS011;35899;50.352;19.390;2022-09-06T08:08:57;1.45;;;0.70;;
50010;SDS011;35899;50.352;19.390;2022-09-06T08:11:27;2.27;;;0.70;;
50010;SDS011;35899;50.352;19.390;2022-09-06T08:13:56;2.60;;;0.70;;
50010;SDS011;35899;50.352;19.390;2022-09-06T08:16:25;2.65;;;0.78;;
50010;SDS011;35899;50.352;19.390;2022-09-06T08:18:58;3.47;;;0.68;;
50010;SDS011;35899;50.352;19.390;2022-09-06T08:21:28;2.02;;;0.80;;
50010;SDS011;35899;50.352;19.390;2022-09-06T08:23:58;1.98;;;0.80;;
50010;SDS011;35899;50.352;19.390;2022-09-06T08:26:28;2.90;;;0.80;;
50010;SDS011;35899;50.352;19.390;2022-09-06T08:29:00;1.90;;;0.70;;
50010;SDS011;35899;50.352;19.390;2022-09-06T08:31:31;1.22;;;0.60;;
50010;SDS011;35899;50.352;19.390;2022-09-06T08:33:59;2.20;;;0.90;;
50010;SDS011;35899;50.352;19.390;2022-09-06T08:36:27;1.77;;;0.70;;
50010;SDS011;35899;50.352;19.390;2022-09-06T08:38:56;1.57;;;0.70;;
50010;SDS011;35899;50.352;19.390;2022-09-06T08:41:25;1.50;;;0.85;;
50010;SDS011;35899;50.352;19.390;2022-09-06T08:44:09;4.92;;;0.70;;
50010;SDS011;35899;50.352;19.390;2022-09-06T08:47:07;3.37;;;0.60;;
50010;SDS011;35899;50.352;19.390;2022-09-06T08:49:41;3.37;;;1.00;;
50010;SDS011;35899;50.352;19.390;2022-09-06T08:55:15;3.05;;;0.60;;
50010;SDS011;35899;50.352;19.390;2022-09-06T09:01:19;2.52;;;0.90;;
50010;SDS011;35899;50.352;19.390;2022-09-06T09:04:00;2.35;;;0.80;;
50010;SDS011;35899;50.352;19.390;2022-09-06T09:06:31;2.52;;;1.00;;
50010;SDS011;35899;50.352;19.390;2022-09-06T09:09:00;4.00;;;1.25;;
50010;SDS011;35899;50.352;19.390;2022-09-06T09:11:32;2.10;;;1.10;;
50010;SDS011;35899;50.352;19.390;2022-09-06T09:16:42;3.05;;;1.00;;
50010;SDS011;35899;50.352;19.390;2022-09-06T09:19:09;2.98;;;0.85;;
50010;SDS011;35899;50.352;19.390;2022-09-06T09:21:37;1.92;;;0.82;;
50010;SDS011;35899;50.352;19.390;2022-09-06T09:24:09;3.02;;;0.88;;
50010;SDS011;35899;50.352;19.390;2022-09-06T09:32:33;4.12;;;0.90;;
50010;SDS011;35899;50.352;19.390;2022-09-06T09:37:54;3.02;;;0.80;;
50010;SDS011;35899;50.352;19.390;2022-09-06T09:43:23;3.33;;;0.82;;
50010;SDS011;35899;50.352;19.390;2022-09-06T09:48:45;4.33;;;0.88;;
50010;SDS011;35899;50.352;19.390;2022-09-06T09:51:28;2.75;;;0.80;;
50010;SDS011;35899;50.352;19.390;2022-09-06T09:53:59;3.45;;;0.70;;
50010;SDS011;35899;50.352;19.390;2022-09-06T09:59:22;2.70;;;0.50;;
50010;SDS011;35899;50.352;19.390;2022-09-06T10:01:59;2.02;;;0.65;;
50010;SDS011;35899;50.352;19.390;2022-09-06T10:09:46;1.77;;;0.57;;
50010;SDS011;35899;50.352;19.390;2022-09-06T10:12:27;2.27;;;0.60;;
50010;SDS011;35899;50.352;19.390;2022-09-06T10:15:05;3.37;;;0.60;;
50010;SDS011;35899;50.352;19.390;2022-09-06T10:20:17;3.08;;;0.82;;
50010;SDS011;35899;50.352;19.390;2022-09-06T10:28:26;1.30;;;0.70;;
50010;SDS011;35899;50.352;19.390;2022-09-06T10:42:54;3.22;;;0.75;;
50010;SDS011;35899;50.352;19.390;2022-09-06T10:45:42;1.60;;;0.50;;
50010;SDS011;35899;50.352;19.390;2022-09-06T10:48:20;1.07;;;0.60;;
50010;SDS011;35899;50.352;19.390;2022-09-06T10:53:47;1.70;;;0.60;;
50010;SDS011;35899;50.352;19.390;2022-09-06T10:59:11;1.47;;;0.60;;
50010;SDS011;35899;50.352;19.390;2022-09-06T11:04:26;1.67;;;0.80;;
50010;SDS011;35899;50.352;19.390;2022-09-06T11:06:56;3.58;;;0.70;;
50010;SDS011;35899;50.352;19.390;2022-09-06T11:09:36;1.62;;;0.70;;
50010;SDS011;35899;50.352;19.390;2022-09-06T11:15:07;3.30;;;0.70;;
50010;SDS011;35899;50.352;19.390;2022-09-06T11:20:26;2.27;;;0.60;;
50010;SDS011;35899;50.352;19.390;2022-09-06T11:28:35;2.10;;;0.70;;
50010;SDS011;35899;50.352;19.390;2022-09-06T11:31:07;1.55;;;0.70;;
50010;SDS011;35899;50.352;19.390;2022-09-06T11:33:38;1.62;;;0.70;;
50010;SDS011;35899;50.352;19.390;2022-09-06T11:39:12;2.05;;;0.65;;
50010;SDS011;35899;50.352;19.390;2022-09-06T11:41:43;1.72;;;0.72;;
50010;SDS011;35899;50.352;19.390;2022-09-06T11:44:10;1.15;;;0.70;;
50010;SDS011;35899;50.352;19.390;2022-09-06T11:52:25;2.58;;;0.80;;
50010;SDS011;35899;50.352;19.390;2022-09-06T11:55:03;4.00;;;0.65;;
50010;SDS011;35899;50.352;19.390;2022-09-06T12:00:02;2.75;;;0.70;;
50010;SDS011;35899;50.352;19.390;2022-09-06T12:02:40;1.22;;;0.60;;
50010;SDS011;35899;50.352;19.390;2022-09-06T12:16:07;1.40;;;0.70;;
50010;SDS011;35899;50.352;19.390;2022-09-06T12:24:07;2.65;;;0.80;;
50010;SDS011;35899;50.352;19.390;2022-09-06T12:32:42;3.67;;;1.10;;
50010;SDS011;35899;50.352;19.390;2022-09-06T12:35:15;2.45;;;0.95;;
50010;SDS011;35899;50.352;19.390;2022-09-06T12:40:30;2.08;;;0.70;;
50010;SDS011;35899;50.352;19.390;2022-09-06T12:45:29;1.95;;;0.80;;
50010;SDS011;35899;50.352;19.390;2022-09-06T12:50:41;3.00;;;0.98;;
50010;SDS011;35899;50.352;19.390;2022-09-06T12:53:16;1.47;;;0.85;;
50010;SDS011;35899;50.352;19.390;2022-09-06T12:56:00;2.65;;;0.95;;
50010;SDS011;35899;50.352;19.390;2022-09-06T12:58:37;3.17;;;1.10;;
50010;SDS011;35899;50.352;19.390;2022-09-06T13:03:58;2.98;;;0.80;;
50010;SDS011;35899;50.352;19.390;2022-09-06T13:06:28;3.65;;;0.82;;
50010;SDS011;35899;50.352;19.390;2022-09-06T13:08:59;3.92;;;1.25;;
50010;SDS011;35899;50.352;19.390;2022-09-06T13:11:31;2.35;;;0.90;;
50010;SDS011;35899;50.352;19.390;2022-09-06T13:14:12;3.62;;;0.98;;
50010;SDS011;35899;50.352;19.390;2022-09-06T13:16:52;2.35;;;0.95;;
50010;SDS011;35899;50.352;19.390;2022-09-06T13:19:33;2.08;;;0.93;;
50010;SDS011;35899;50.352;19.390;2022-09-06T13:22:04;1.82;;;0.80;;
50010;SDS011;35899;50.352;19.390;2022-09-06T13:27:25;1.98;;;0.90;;
50010;SDS011;35899;50.352;19.390;2022-09-06T13:30:03;1.65;;;0.80;;
50010;SDS011;35899;50.352;19.390;2022-09-06T13:32:34;2.05;;;0.90;;
50010;SDS011;35899;50.352;19.390;2022-09-06T13:35:04;3.30;;;0.95;;
50010;SDS011;35899;50.352;19.390;2022-09-06T13:37:32;2.75;;;1.07;;
50010;SDS011;35899;50.352;19.390;2022-09-06T13:40:01;3.40;;;1.00;;
50010;SDS011;35899;50.352;19.390;2022-09-06T13:42:32;2.15;;;0.90;;
50010;SDS011;35899;50.352;19.390;2022-09-06T13:47:58;2.20;;;0.80;;
50010;SDS011;35899;50.352;19.390;2022-09-06T13:50:25;3.02;;;0.90;;
50010;SDS011;35899;50.352;19.390;2022-09-06T13:52:52;3.70;;;0.80;;
50010;SDS011;35899;50.352;19.390;2022-09-06T13:55:20;1.82;;;0.90;;
50010;SDS011;35899;50.352;19.390;2022-09-06T13:57:51;2.10;;;0.90;;
50010;SDS011;35899;50.352;19.390;2022-09-06T14:00:18;2.55;;;1.12;;
50010;SDS011;35899;50.352;19.390;2022-09-06T14:02:46;2.40;;;0.93;;
50010;SDS011;35899;50.352;19.390;2022-09-06T14:05:15;3.60;;;0.90;;
50010;SDS011;35899;50.352;19.390;2022-09-06T14:07:43;5.78;;;1.00;;
50010;SDS011;35899;50.352;19.390;2022-09-06T14:10:12;1.60;;;0.80;;
50010;SDS011;35899;50.352;19.390;2022-09-06T14:12:40;2.05;;;1.00;;
50010;SDS011;35899;50.352;19.390;2022-09-06T14:15:08;2.17;;;0.95;;
50010;SDS011;35899;50.352;19.390;2022-09-06T14:17:35;2.77;;;0.90;;
50010;SDS011;35899;50.352;19.390;2022-09-06T14:20:02;4.00;;;1.00;;
50010;SDS011;35899;50.352;19.390;2022-09-06T14:22:29;4.40;;;1.00;;
50010;SDS011;35899;50.352;19.390;2022-09-06T14:24:57;1.72;;;0.90;;
50010;SDS011;35899;50.352;19.390;2022-09-06T14:27:24;2.25;;;0.93;;
50010;SDS011;35899;50.352;19.390;2022-09-06T14:29:52;2.75;;;0.90;;
50010;SDS011;35899;50.352;19.390;2022-09-06T14:32:19;3.17;;;0.90;;
50010;SDS011;35899;50.352;19.390;2022-09-06T14:34:46;3.87;;;0.93;;
50010;SDS011;35899;50.352;19.390;2022-09-06T14:37:13;3.02;;;1.00;;
50010;SDS011;35899;50.352;19.390;2022-09-06T14:39:40;4.75;;;1.00;;
50010;SDS011;35899;50.352;19.390;2022-09-06T14:42:07;3.83;;;1.02;;
50010;SDS011;35899;50.352;19.390;2022-09-06T14:44:34;3.27;;;1.05;;
50010;SDS011;35899;50.352;19.390;2022-09-06T14:47:01;3.20;;;0.88;;
50010;SDS011;35899;50.352;19.390;2022-09-06T14:49:29;3.50;;;1.10;;
50010;SDS011;35899;50.352;19.390;2022-09-06T14:51:56;3.05;;;1.02;;
50010;SDS011;35899;50.352;19.390;2022-09-06T14:54:23;3.47;;;1.15;;
50010;SDS011;35899;50.352;19.390;2022-09-06T14:56:50;2.90;;;0.95;;
50010;SDS011;35899;50.352;19.390;2022-09-06T14:59:17;4.12;;;1.10;;
50010;SDS011;35899;50.352;19.390;2022-09-06T15:01:44;4.42;;;1.10;;
50010;SDS011;35899;50.352;19.390;2022-09-06T15:04:14;3.45;;;1.20;;
50010;SDS011;35899;50.352;19.390;2022-09-06T15:06:41;2.77;;;1.10;;
50010;SDS011;35899;50.352;19.390;2022-09-06T15:09:10;3.87;;;1.25;;
50010;SDS011;35899;50.352;19.390;2022-09-06T15:14:18;4.47;;;2.05;;
50010;SDS011;35899;50.352;19.390;2022-09-06T15:16:49;6.28;;;2.80;;
50010;SDS011;35899;50.352;19.390;2022-09-06T15:19:18;4.85;;;1.98;;
50010;SDS011;35899;50.352;19.390;2022-09-06T15:21:45;2.95;;;1.40;;
50010;SDS011;35899;50.352;19.390;2022-09-06T15:24:13;5.35;;;2.92;;
50010;SDS011;35899;50.352;19.390;2022-09-06T15:26:41;5.90;;;1.50;;
50010;SDS011;35899;50.352;19.390;2022-09-06T15:29:08;3.10;;;1.65;;
50010;SDS011;35899;50.352;19.390;2022-09-06T15:31:40;3.90;;;1.77;;
50010;SDS011;35899;50.352;19.390;2022-09-06T15:34:08;3.33;;;1.20;;
50010;SDS011;35899;50.352;19.390;2022-09-06T15:36:36;3.70;;;1.72;;
50010;SDS011;35899;50.352;19.390;2022-09-06T15:39:04;6.05;;;1.30;;
50010;SDS011;35899;50.352;19.390;2022-09-06T15:41:33;4.08;;;1.20;;
50010;SDS011;35899;50.352;19.390;2022-09-06T15:44:06;2.52;;;1.02;;
50010;SDS011;35899;50.352;19.390;2022-09-06T15:46:55;7.78;;;2.42;;
50010;SDS011;35899;50.352;19.390;2022-09-06T15:49:25;5.33;;;1.77;;
50010;SDS011;35899;50.352;19.390;2022-09-06T15:51:57;9.05;;;2.30;;
50010;SDS011;35899;50.352;19.390;2022-09-06T15:54:27;8.35;;;2.37;;
50010;SDS011;35899;50.352;19.390;2022-09-06T15:57:14;3.35;;;1.77;;
50010;SDS011;35899;50.352;19.390;2022-09-06T15:59:42;10.20;;;3.22;;
50010;SDS011;35899;50.352;19.390;2022-09-06T16:02:10;6.15;;;2.05;;
50010;SDS011;35899;50.352;19.390;2022-09-06T16:04:38;4.50;;;1.50;;
50010;SDS011;35899;50.352;19.390;2022-09-06T16:07:05;4.60;;;1.70;;
50010;SDS011;35899;50.352;19.390;2022-09-06T16:09:33;5.90;;;1.55;;
50010;SDS011;35899;50.352;19.390;2022-09-06T16:12:00;2.87;;;1.30;;
50010;SDS011;35899;50.352;19.390;2022-09-06T16:14:27;3.60;;;1.20;;
50010;SDS011;35899;50.352;19.390;2022-09-06T16:16:54;2.42;;;1.10;;
50010;SDS011;35899;50.352;19.390;2022-09-06T16:19:22;2.83;;;1.20;;
50010;SDS011;35899;50.352;19.390;2022-09-06T16:21:50;2.20;;;1.00;;
50010;SDS011;35899;50.352;19.390;2022-09-06T16:24:18;3.40;;;1.00;;
50010;SDS011;35899;50.352;19.390;2022-09-06T16:26:46;2.60;;;1.32;;
50010;SDS011;35899;50.352;19.390;2022-09-06T16:29:14;3.95;;;1.25;;
50010;SDS011;35899;50.352;19.390;2022-09-06T16:31:43;1.50;;;0.93;;
50010;SDS011;35899;50.352;19.390;2022-09-06T16:34:11;5.70;;;1.05;;
50010;SDS011;35899;50.352;19.390;2022-09-06T16:36:38;3.33;;;1.10;;
50010;SDS011;35899;50.352;19.390;2022-09-06T16:39:06;5.55;;;1.27;;
50010;SDS011;35899;50.352;19.390;2022-09-06T16:44:06;2.40;;;0.90;;
50010;SDS011;35899;50.352;19.390;2022-09-06T16:46:37;2.40;;;1.00;;
50010;SDS011;35899;50.352;19.390;2022-09-06T16:49:06;3.52;;;1.32;;
50010;SDS011;35899;50.352;19.390;2022-09-06T16:51:34;3.90;;;1.17;;
50010;SDS011;35899;50.352;19.390;2022-09-06T16:54:01;4.05;;;1.30;;
50010;SDS011;35899;50.352;19.390;2022-09-06T16:56:30;3.90;;;1.20;;
50010;SDS011;35899;50.352;19.390;2022-09-06T16:59:02;6.60;;;1.30;;
50010;SDS011;35899;50.352;19.390;2022-09-06T17:01:31;4.03;;;1.00;;
50010;SDS011;35899;50.352;19.390;2022-09-06T17:04:01;3.05;;;1.25;;
50010;SDS011;35899;50.352;19.390;2022-09-06T17:06:30;13.30;;;1.25;;
50010;SDS011;35899;50.352;19.390;2022-09-06T17:08:59;4.75;;;1.22;;
50010;SDS011;35899;50.352;19.390;2022-09-06T17:11:26;2.50;;;0.98;;
50010;SDS011;35899;50.352;19.390;2022-09-06T17:13:54;3.47;;;1.20;;
50010;SDS011;35899;50.352;19.390;2022-09-06T17:16:22;3.45;;;1.02;;
50010;SDS011;35899;50.352;19.390;2022-09-06T17:19:09;2.70;;;1.20;;
50010;SDS011;35899;50.352;19.390;2022-09-06T17:21:36;4.03;;;1.30;;
50010;SDS011;35899;50.352;19.390;2022-09-06T17:24:05;3.25;;;1.00;;
50010;SDS011;35899;50.352;19.390;2022-09-06T17:26:35;2.92;;;1.20;;
50010;SDS011;35899;50.352;19.390;2022-09-06T17:29:03;2.47;;;1.27;;
50010;SDS011;35899;50.352;19.390;2022-09-06T17:31:32;4.15;;;1.27;;
50010;SDS011;35899;50.352;19.390;2022-09-06T17:33:59;4.03;;;1.50;;
50010;SDS011;35899;50.352;19.390;2022-09-06T17:36:28;4.25;;;1.10;;
50010;SDS011;35899;50.352;19.390;2022-09-06T17:39:01;4.20;;;1.20;;
50010;SDS011;35899;50.352;19.390;2022-09-06T17:41:38;2.20;;;1.20;;
50010;SDS011;35899;50.352;19.390;2022-09-06T17:44:08;3.47;;;1.32;;
50010;SDS011;35899;50.352;19.390;2022-09-06T17:46:38;3.70;;;1.35;;
50010;SDS011;35899;50.352;19.390;2022-09-06T17:49:06;4.47;;;1.60;;
50010;SDS011;35899;50.352;19.390;2022-09-06T17:51:33;4.70;;;1.30;;
50010;SDS011;35899;50.352;19.390;2022-09-06T17:54:00;3.62;;;1.32;;
50010;SDS011;35899;50.352;19.390;2022-09-06T17:56:27;3.12;;;1.37;;
50010;SDS011;35899;50.352;19.390;2022-09-06T17:58:56;2.87;;;1.62;;
50010;SDS011;35899;50.352;19.390;2022-09-06T18:01:26;4.12;;;1.50;;
50010;SDS011;35899;50.352;19.390;2022-09-06T18:03:56;3.08;;;1.72;;
50010;SDS011;35899;50.352;19.390;2022-09-06T18:06:24;2.90;;;1.50;;
50010;SDS011;35899;50.352;19.390;2022-09-06T18:08:54;4.17;;;1.67;;
50010;SDS011;35899;50.352;19.390;2022-09-06T18:11:25;5.60;;;2.27;;
50010;SDS011;35899;50.352;19.390;2022-09-06T18:13:59;5.67;;;1.77;;
50010;SDS011;35899;50.352;19.390;2022-09-06T18:16:30;5.30;;;2.10;;
50010;SDS011;35899;50.352;19.390;2022-09-06T18:19:00;3.70;;;1.70;;
50010;SDS011;35899;50.352;19.390;2022-09-06T18:21:32;5.80;;;1.50;;
50010;SDS011;35899;50.352;19.390;2022-09-06T18:24:01;3.85;;;2.10;;
50010;SDS011;35899;50.352;19.390;2022-09-06T18:26:30;4.75;;;2.00;;
50010;SDS011;35899;50.352;19.390;2022-09-06T18:28:57;4.28;;;1.87;;
50010;SDS011;35899;50.352;19.390;2022-09-06T18:31:25;6.08;;;2.27;;
50010;SDS011;35899;50.352;19.390;2022-09-06T18:33:54;6.42;;;2.25;;
50010;SDS011;35899;50.352;19.390;2022-09-06T18:36:23;7.28;;;2.25;;
50010;SDS011;35899;50.352;19.390;2022-09-06T18:38:52;5.72;;;2.52;;
50010;SDS011;35899;50.352;19.390;2022-09-06T18:41:19;16.30;;;2.60;;
50010;SDS011;35899;50.352;19.390;2022-09-06T18:44:04;5.12;;;2.42;;
50010;SDS011;35899;50.352;19.390;2022-09-06T18:46:33;7.50;;;2.50;;
50010;SDS011;35899;50.352;19.390;2022-09-06T18:49:03;7.45;;;2.50;;
50010;SDS011;35899;50.352;19.390;2022-09-06T18:51:31;6.47;;;2.40;;
50010;SDS011;35899;50.352;19.390;2022-09-06T18:53:59;4.85;;;2.35;;
50010;SDS011;35899;50.352;19.390;2022-09-06T18:56:27;6.47;;;2.83;;
50010;SDS011;35899;50.352;19.390;2022-09-06T18:58:54;6.55;;;2.67;;
50010;SDS011;35899;50.352;19.390;2022-09-06T19:01:26;6.72;;;2.72;;
50010;SDS011;35899;50.352;19.390;2022-09-06T19:06:25;6.30;;;2.65;;
50010;SDS011;35899;50.352;19.390;2022-09-06T19:08:59;3.62;;;2.27;;
50010;SDS011;35899;50.352;19.390;2022-09-06T19:11:30;5.70;;;2.30;;
50010;SDS011;35899;50.352;19.390;2022-09-06T19:13:57;7.10;;;2.20;;
50010;SDS011;35899;50.352;19.390;2022-09-06T19:16:25;5.67;;;2.40;;
50010;SDS011;35899;50.352;19.390;2022-09-06T19:18:54;6.30;;;2.77;;
50010;SDS011;35899;50.352;19.390;2022-09-06T19:21:27;4.92;;;2.10;;
50010;SDS011;35899;50.352;19.390;2022-09-06T19:23:55;7.20;;;2.47;;
50010;SDS011;35899;50.352;19.390;2022-09-06T19:26:30;5.80;;;2.45;;
50010;SDS011;35899;50.352;19.390;2022-09-06T19:29:01;5.95;;;2.30;;
50010;SDS011;35899;50.352;19.390;2022-09-06T19:31:32;5.50;;;2.62;;
50010;SDS011;35899;50.352;19.390;2022-09-06T19:34:02;7.70;;;2.52;;
50010;SDS011;35899;50.352;19.390;2022-09-06T19:36:30;5.90;;;2.47;;
50010;SDS011;35899;50.352;19.390;2022-09-06T19:38:58;6.35;;;2.58;;
50010;SDS011;35899;50.352;19.390;2022-09-06T19:41:29;7.17;;;2.77;;
50010;SDS011;35899;50.352;19.390;2022-09-06T19:43:59;6.17;;;2.33;;
50010;SDS011;35899;50.352;19.390;2022-09-06T19:46:26;5.47;;;2.22;;
50010;SDS011;35899;50.352;19.390;2022-09-06T19:48:53;7.33;;;2.67;;
50010;SDS011;35899;50.352;19.390;2022-09-06T19:51:21;7.05;;;2.58;;
50010;SDS011;35899;50.352;19.390;2022-09-06T19:53:49;5.97;;;2.08;;
50010;SDS011;35899;50.352;19.390;2022-09-06T19:56:20;6.70;;;2.42;;
50010;SDS011;35899;50.352;19.390;2022-09-06T19:58:53;3.90;;;1.85;;
50010;SDS011;35899;50.352;19.390;2022-09-06T20:01:24;4.97;;;1.92;;
50010;SDS011;35899;50.352;19.390;2022-09-06T20:03:54;6.72;;;1.80;;
50010;SDS011;35899;50.352;19.390;2022-09-06T20:06:21;3.67;;;1.72;;
50010;SDS011;35899;50.352;19.390;2022-09-06T20:08:52;4.12;;;1.70;;
50010;SDS011;35899;50.352;19.390;2022-09-06T20:11:23;4.45;;;1.80;;
50010;SDS011;35899;50.352;19.390;2022-09-06T20:13:53;3.75;;;1.57;;
50010;SDS011;35899;50.352;19.390;2022-09-06T20:16:21;3.75;;;1.42;;
50010;SDS011;35899;50.352;19.390;2022-09-06T20:18:50;3.70;;;1.77;;
50010;SDS011;35899;50.352;19.390;2022-09-06T20:21:19;5.87;;;1.40;;
50010;SDS011;35899;50.352;19.390;2022-09-06T20:26:17;3.62;;;1.37;;
50010;SDS011;35899;50.352;19.390;2022-09-06T20:28:45;5.83;;;1.80;;
50010;SDS011;35899;50.352;19.390;2022-09-06T20:31:14;3.33;;;1.70;;
50010;SDS011;35899;50.352;19.390;2022-09-06T20:33:44;4.30;;;1.47;;
50010;SDS011;35899;50.352;19.390;2022-09-06T20:36:11;5.80;;;1.85;;
50010;SDS011;35899;50.352;19.390;2022-09-06T20:38:39;3.77;;;1.47;;
50010;SDS011;35899;50.352;19.390;2022-09-06T20:41:11;3.80;;;1.55;;
50010;SDS011;35899;50.352;19.390;2022-09-06T20:43:41;3.45;;;1.50;;
50010;SDS011;35899;50.352;19.390;2022-09-06T20:46:12;4.17;;;1.72;;
50010;SDS011;35899;50.352;19.390;2022-09-06T20:48:43;5.55;;;1.80;;
50010;SDS011;35899;50.352;19.390;2022-09-06T20:51:12;3.60;;;1.62;;
50010;SDS011;35899;50.352;19.390;2022-09-06T20:53:44;3.27;;;1.50;;
50010;SDS011;35899;50.352;19.390;2022-09-06T20:58:49;4.53;;;1.42;;
50010;SDS011;35899;50.352;19.390;2022-09-06T21:01:23;3.27;;;1.42;;
50010;SDS011;35899;50.352;19.390;2022-09-06T21:03:53;5.03;;;1.37;;
50010;SDS011;35899;50.352;19.390;2022-09-06T21:06:23;6.33;;;1.27;;
50010;SDS011;35899;50.352;19.390;2022-09-06T21:08:53;3.77;;;1.50;;
50010;SDS011;35899;50.352;19.390;2022-09-06T21:11:21;2.87;;;1.30;;
50010;SDS011;35899;50.352;19.390;2022-09-06T21:13:52;5.03;;;1.00;;
50010;SDS011;35899;50.352;19.390;2022-09-06T21:16:22;2.65;;;1.10;;
50010;SDS011;35899;50.352;19.390;2022-09-06T21:21:23;2.22;;;1.00;;
50010;SDS011;35899;50.352;19.390;2022-09-06T21:23:51;2.15;;;1.00;;
50010;SDS011;35899;50.352;19.390;2022-09-06T21:26:19;3.00;;;1.00;;
50010;SDS011;35899;50.352;19.390;2022-09-06T21:28:47;2.77;;;0.80;;
50010;SDS011;35899;50.352;19.390;2022-09-06T21:31:16;5.28;;;0.82;;
50010;SDS011;35899;50.352;19.390;2022-09-06T21:33:52;5.00;;;1.22;;
50010;SDS011;35899;50.352;19.390;2022-09-06T21:38:56;3.33;;;0.80;;
50010;SDS011;35899;50.352;19.390;2022-09-06T21:41:26;2.50;;;0.80;;
50010;SDS011;35899;50.352;19.390;2022-09-06T21:43:55;4.17;;;1.00;;
50010;SDS011;35899;50.352;19.390;2022-09-06T21:46:25;2.83;;;0.80;;
50010;SDS011;35899;50.352;19.390;2022-09-06T21:49:02;2.05;;;0.80;;
50010;SDS011;35899;50.352;19.390;2022-09-06T21:51:32;1.67;;;0.68;;
50010;SDS011;35899;50.352;19.390;2022-09-06T21:54:00;2.02;;;0.50;;
50010;SDS011;35899;50.352;19.390;2022-09-06T21:56:31;3.20;;;0.80;;
50010;SDS011;35899;50.352;19.390;2022-09-06T21:59:00;4.33;;;0.78;;
50010;SDS011;35899;50.352;19.390;2022-09-06T22:01:29;2.35;;;0.55;;
50010;SDS011;35899;50.352;19.390;2022-09-06T22:04:00;2.17;;;0.70;;
50010;SDS011;35899;50.352;19.390;2022-09-06T22:06:28;2.70;;;0.70;;
50010;SDS011;35899;50.352;19.390;2022-09-06T22:08:58;2.30;;;0.60;;
50010;SDS011;35899;50.352;19.390;2022-09-06T22:11:31;2.80;;;0.60;;
50010;SDS011;35899;50.352;19.390;2022-09-06T22:14:00;2.83;;;0.70;;
50010;SDS011;35899;50.352;19.390;2022-09-06T22:16:30;2.65;;;0.60;;
50010;SDS011;35899;50.352;19.390;2022-09-06T22:19:00;4.75;;;0.70;;
50010;SDS011;35899;50.352;19.390;2022-09-06T22:21:32;2.72;;;0.62;;
50010;SDS011;35899;50.352;19.390;2022-09-06T22:24:00;1.75;;;0.50;;
50010;SDS011;35899;50.352;19.390;2022-09-06T22:26:31;1.55;;;0.55;;
50010;SDS011;35899;50.352;19.390;2022-09-06T22:29:02;1.25;;;0.50;;
50010;SDS011;35899;50.352;19.390;2022-09-06T22:31:32;3.52;;;0.72;;
50010;SDS011;35899;50.352;19.390;2022-09-06T22:33:59;1.55;;;0.60;;
50010;SDS011;35899;50.352;19.390;2022-09-06T22:36:27;1.22;;;0.40;;
50010;SDS011;35899;50.352;19.390;2022-09-06T22:38:54;2.65;;;0.60;;
50010;SDS011;35899;50.352;19.390;2022-09-06T22:41:22;2.10;;;0.68;;
50010;SDS011;35899;50.352;19.390;2022-09-06T22:43:55;1.52;;;0.70;;
50010;SDS011;35899;50.352;19.390;2022-09-06T22:46:24;2.08;;;0.60;;
50010;SDS011;35899;50.352;19.390;2022-09-06T22:48:51;3.05;;;0.60;;
50010;SDS011;35899;50.352;19.390;2022-09-06T22:51:19;2.25;;;0.62;;
50010;SDS011;35899;50.352;19.390;2022-09-06T22:53:46;3.42;;;0.50;;
50010;SDS011;35899;50.352;19.390;2022-09-06T22:56:13;2.67;;;0.50;;
50010;SDS011;35899;50.352;19.390;2022-09-06T22:58:40;2.37;;;0.50;;
50010;SDS011;35899;50.352;19.390;2022-09-06T23:01:10;3.37;;;0.70;;
50010;SDS011;35899;50.352;19.390;2022-09-06T23:03:39;1.50;;;0.60;;
50010;SDS011;35899;50.352;19.390;2022-09-06T23:06:07;2.20;;;0.60;;
50010;SDS011;35899;50.352;19.390;2022-09-06T23:08:35;2.37;;;0.90;;
50010;SDS011;35899;50.352;19.390;2022-09-06T23:11:05;3.37;;;0.70;;
50010;SDS011;35899;50.352;19.390;2022-09-06T23:13:35;1.55;;;0.80;;
50010;SDS011;35899;50.352;19.390;2022-09-06T23:16:03;3.58;;;0.88;;
50010;SDS011;35899;50.352;19.390;2022-09-06T23:18:32;2.87;;;0.72;;
50010;SDS011;35899;50.352;19.390;2022-09-06T23:21:03;5.00;;;0.70;;
50010;SDS011;35899;50.352;19.390;2022-09-06T23:23:32;1.77;;;0.70;;